M I D A S
Marine Information and Data Acquisition System
Tripno 1406 of the Zeeleeuw from 2007-09-11 08:00:00 to 2007-09-11 17:00:00
Back to CruiseResearch ActivitiesStationsMapUnderway DataData graphs

EquipmentUnitsComment
TimeDGPSUTC
LatitudeDGPSDM.mWGS84
LongitudeDGPSDM.mWGS84
HeadingGyrodeg 
SOGDGPSknotsSpeed over ground
COGDGPSdegCourse over ground
DepthEcho soundermeters200 kHz
Missing or incorrect values are displayed as -999
Navigation data collected by the RV Zeeleeuw from 2007-09-11 08:00:00 to 2007-09-11 17:00:00
                                                                                    Next 1000 lines
Time Latitude Longitude Heading SOG COG Depth
2007-09-11 08:00:10 51°15.052 2°52.957 299.7 12.4 290 10.1
2007-09-11 08:00:15 51°15.058 2°52.932 299.4 12.3 289 9.6
2007-09-11 08:00:20 51°15.063 2°52.906 299.6 12.2 289 10.3
2007-09-11 08:00:25 51°15.069 2°52.879 299.4 12.3 290 10.2
2007-09-11 08:00:30 51°15.075 2°52.854 299.9 12.5 290 10.1
2007-09-11 08:00:35 51°15.081 2°52.828 301.2 12.5 288 10.3
2007-09-11 08:00:40 51°15.086 2°52.801 300.1 12.4 288 10.1
2007-09-11 08:00:45 51°15.092 2°52.775 299.6 12.4 289 10
2007-09-11 08:00:50 51°15.097 2°52.749 299.8 12.6 290 10.4
2007-09-11 08:00:55 51°15.104 2°52.723 299.7 12.7 292 10.4
2007-09-11 08:01:00 51°15.11 2°52.697 300.4 12.6 291 10.6
2007-09-11 08:01:05 51°15.117 2°52.67 300.6 12.7 291 10.7
2007-09-11 08:01:10 51°15.122 2°52.643 299.3 12.7 289 10.5
2007-09-11 08:01:15 51°15.128 2°52.617 299.7 12.8 288 10.4
2007-09-11 08:01:20 51°15.134 2°52.59 300 12.7 289 10.7
2007-09-11 08:01:25 51°15.14 2°52.564 300.4 12.7 292 10.5
2007-09-11 08:01:30 51°15.146 2°52.537 300.3 12.9 290 10.5
2007-09-11 08:01:35 51°15.152 2°52.511 300.1 12.6 292 10.4
2007-09-11 08:01:40 51°15.159 2°52.484 300.5 12.9 291 10.7
2007-09-11 08:01:45 51°15.165 2°52.458 301.1 12.9 291 10.7
2007-09-11 08:01:50 51°15.171 2°52.431 301.3 13 290 10.7
2007-09-11 08:01:55 51°15.177 2°52.405 300.4 13 288 11
2007-09-11 08:02:00 51°15.182 2°52.377 299.7 12.9 285 10.7
2007-09-11 08:02:05 51°15.187 2°52.35 298.8 12.7 289 10.4
2007-09-11 08:02:10 51°15.193 2°52.323 299 12.8 290 10.9
2007-09-11 08:02:15 51°15.199 2°52.296 299.8 12.7 289 10.5
2007-09-11 08:02:20 51°15.204 2°52.27 300.2 12.7 288 10.8
2007-09-11 08:02:25 51°15.209 2°52.242 298.5 13 284 11
2007-09-11 08:02:30 51°15.214 2°52.215 297.8 13 286 11.2
2007-09-11 08:02:35 51°15.219 2°52.187 298.1 13.1 285 11.2
2007-09-11 08:02:40 51°15.223 2°52.159 296.7 13.2 284 11.4
2007-09-11 08:02:45 51°15.228 2°52.131 297 13.2 286 11.2
2007-09-11 08:02:50 51°15.233 2°52.103 297.1 13.1 285 11.2
2007-09-11 08:02:55 51°15.237 2°52.074 296.5 13.2 284 11.4
2007-09-11 08:03:00 51°15.243 2°52.046 296.1 13.2 286 11.2
2007-09-11 08:03:05 51°15.247 2°52.017 296.1 13.3 284 11.6
2007-09-11 08:03:10 51°15.251 2°51.989 295.2 13.4 283 11.4
2007-09-11 08:03:15 51°15.256 2°51.961 295.7 13 284 11.1
2007-09-11 08:03:20 51°15.26 2°51.933 294.9 13 282 11.6
2007-09-11 08:03:25 51°15.264 2°51.906 295.1 12.8 285 11.2
2007-09-11 08:03:30 51°15.268 2°51.878 295.4 12.9 285 11.2
2007-09-11 08:03:35 51°15.273 2°51.85 295.4 13 282 11.5
2007-09-11 08:03:40 51°15.277 2°51.823 295.2 12.7 284 10.5
2007-09-11 08:03:45 51°15.281 2°51.795 295.3 12.8 284 11.2
2007-09-11 08:03:50 51°15.286 2°51.767 295.4 13 284 11.8
2007-09-11 08:03:55 51°15.291 2°51.74 295.7 12.9 284 11.9
2007-09-11 08:04:00 51°15.296 2°51.713 296.4 12.7 287 11.6
2007-09-11 08:04:05 51°15.3 2°51.685 296.5 12.9 286 11.8
2007-09-11 08:04:10 51°15.305 2°51.657 294.9 13 285 12.2
2007-09-11 08:04:15 51°15.31 2°51.63 295.8 13 286 12.3
2007-09-11 08:04:20 51°15.315 2°51.602 295.6 13 285 12.1
2007-09-11 08:04:25 51°15.32 2°51.574 295.7 13.1 288 12.3
2007-09-11 08:04:30 51°15.324 2°51.546 295.3 13 285 12.2
2007-09-11 08:04:35 51°15.329 2°51.519 293.9 13.2 285 12.1
2007-09-11 08:04:40 51°15.334 2°51.492 295.5 13 286 12.2
2007-09-11 08:04:45 51°15.339 2°51.464 296.1 12.9 286 12.2
2007-09-11 08:04:50 51°15.344 2°51.436 296.5 13.1 287 12.2
2007-09-11 08:04:55 51°15.349 2°51.408 296.3 13.1 284 12.6
2007-09-11 08:05:00 51°15.353 2°51.38 295.4 13.2 283 12.6
2007-09-11 08:05:05 51°15.358 2°51.353 294.9 13 285 12.7
2007-09-11 08:05:10 51°15.362 2°51.325 294.8 13 282 12.4
2007-09-11 08:05:15 51°15.367 2°51.298 295.9 12.8 283 11.8
2007-09-11 08:05:20 51°15.371 2°51.27 295.1 12.7 284 11.7
2007-09-11 08:05:25 51°15.375 2°51.242 293.7 12.8 285 11.5
2007-09-11 08:05:30 51°15.38 2°51.215 293.8 12.9 285 11.8
2007-09-11 08:05:36 51°15.385 2°51.181 294 12.8 286 12.1
2007-09-11 08:05:40 51°15.389 2°51.159 293.9 12.9 285 12.3
2007-09-11 08:05:45 51°15.393 2°51.131 294.4 13 284 12.3
2007-09-11 08:05:50 51°15.398 2°51.104 295.3 12.8 288 12.6
2007-09-11 08:05:55 51°15.403 2°51.076 295.8 12.9 285 13
2007-09-11 08:06:00 51°15.407 2°51.048 293.7 13 284 13
2007-09-11 08:06:05 51°15.413 2°51.022 295.2 12.9 287 13.2
2007-09-11 08:06:10 51°15.417 2°50.994 295 13.1 284 12.9
2007-09-11 08:06:15 51°15.423 2°50.967 295.2 12.9 289 12.9
2007-09-11 08:06:20 51°15.427 2°50.938 295 13.2 283 13.3
2007-09-11 08:06:25 51°15.433 2°50.911 294.8 13 288 12.7
2007-09-11 08:06:30 51°15.438 2°50.884 295.1 12.9 286 12.6
2007-09-11 08:06:35 51°15.443 2°50.857 295 12.5 287 12.1
2007-09-11 08:06:40 51°15.448 2°50.831 296.8 12.4 289 12.4
2007-09-11 08:06:45 51°15.453 2°50.804 297.2 12.5 288 12.4
2007-09-11 08:06:50 51°15.46 2°50.778 298.6 12.6 291 12.4
2007-09-11 08:06:55 51°15.465 2°50.752 298.8 12.5 288 12.6
2007-09-11 08:07:00 51°15.471 2°50.726 298.3 12.5 288 12.5
2007-09-11 08:07:05 51°15.477 2°50.7 299.3 12.4 291 12.6
2007-09-11 08:07:10 51°15.484 2°50.674 301.2 12.5 292 12.7
2007-09-11 08:07:15 51°15.49 2°50.649 301.9 12.5 292 12.6
2007-09-11 08:07:20 51°15.497 2°50.623 302.9 12.5 294 12.6
2007-09-11 08:07:25 51°15.504 2°50.598 303.6 12.5 294 12.7
2007-09-11 08:07:30 51°15.511 2°50.573 302.6 12.6 294 12.8
2007-09-11 08:07:35 51°15.519 2°50.547 304.2 12.6 295 13.2
2007-09-11 08:07:40 51°15.525 2°50.521 303.4 12.5 291 -999
2007-09-11 08:07:45 51°15.531 2°50.498 302.5 11.7 290 12.8
2007-09-11 08:07:52 51°15.54 2°50.465 303.4 11.7 296 12.7
2007-09-11 08:07:56 51°15.545 2°50.445 302.3 12 292 12.1
2007-09-11 08:08:01 51°15.552 2°50.421 303.6 12.1 296 12.6
2007-09-11 08:08:06 51°15.559 2°50.396 304.5 12.2 293 12.9
2007-09-11 08:08:11 51°15.565 2°50.371 302.6 12.3 292 12.6
2007-09-11 08:08:16 51°15.572 2°50.346 303.5 12.3 294 12.4
2007-09-11 08:08:21 51°15.579 2°50.322 304.2 12.2 295 12.9
2007-09-11 08:08:25 51°15.584 2°50.302 303.5 12.1 293 12.8
2007-09-11 08:08:31 51°15.592 2°50.273 303.5 12 294 12.3
2007-09-11 08:08:36 51°15.599 2°50.249 302.8 12.1 293 12.2
2007-09-11 08:08:40 51°15.605 2°50.23 304.8 12.1 300 12.9
2007-09-11 08:08:45 51°15.613 2°50.206 307.6 12.1 298 13.2
2007-09-11 08:08:50 51°15.621 2°50.183 308.1 12.1 298 12.5
2007-09-11 08:08:55 51°15.63 2°50.16 308.7 11.9 300 12.6
2007-09-11 08:09:00 51°15.638 2°50.138 309.7 12 300 12.8
2007-09-11 08:09:05 51°15.647 2°50.116 311.2 11.9 304 13.1
2007-09-11 08:09:10 51°15.655 2°50.091 311.4 12 300 13.6
2007-09-11 08:09:15 51°15.664 2°50.07 311.5 11.5 302 13.3
2007-09-11 08:09:20 51°15.672 2°50.048 310.9 11.1 302 13.7
2007-09-11 08:09:26 51°15.681 2°50.024 310.9 11 301 12.7
2007-09-11 08:09:31 51°15.69 2°50.003 311.2 11 302 11.9
2007-09-11 08:09:36 51°15.698 2°49.982 311.8 10.9 301 11.7
2007-09-11 08:09:41 51°15.706 2°49.959 310.9 11.4 301 12
2007-09-11 08:09:46 51°15.715 2°49.938 311.3 11.6 303 12.7
2007-09-11 08:09:51 51°15.723 2°49.917 313.4 11.5 302 12.4
2007-09-11 08:09:56 51°15.732 2°49.896 312.6 11.4 304 12.2
2007-09-11 08:10:00 51°15.739 2°49.879 312.8 11.2 303 12.2
2007-09-11 08:10:05 51°15.747 2°49.858 312.6 11.5 303 12.6
2007-09-11 08:10:10 51°15.756 2°49.837 312.2 11.6 305 12.7
2007-09-11 08:10:15 51°15.765 2°49.815 312.6 11.7 300 12.4
2007-09-11 08:10:20 51°15.774 2°49.794 311.3 11.7 303 12.2
2007-09-11 08:10:25 51°15.782 2°49.772 312.8 11.7 302 12
2007-09-11 08:10:30 51°15.791 2°49.751 312.1 11.6 304 11.5
2007-09-11 08:10:35 51°15.801 2°49.729 312.8 11.6 306 11.3
2007-09-11 08:10:40 51°15.81 2°49.707 312.6 11.7 303 10.6
2007-09-11 08:10:45 51°15.818 2°49.687 312.1 11.2 303 10.4
2007-09-11 08:10:50 51°15.827 2°49.665 312.1 11.3 303 10.1
2007-09-11 08:10:55 51°15.836 2°49.644 312.4 11.5 304 10.4
2007-09-11 08:11:00 51°15.844 2°49.622 311.6 11.7 302 10.6
2007-09-11 08:11:05 51°15.854 2°49.601 312.7 11.5 305 9.9
2007-09-11 08:11:10 51°15.861 2°49.579 311.7 11.2 302 -999
2007-09-11 08:11:16 51°15.872 2°49.553 310.6 11.6 302 10.2
2007-09-11 08:11:21 51°15.881 2°49.532 311.1 11.8 304 10.7
2007-09-11 08:11:25 51°15.887 2°49.515 312 11.7 302 11.1
2007-09-11 08:11:31 51°15.897 2°49.489 312.6 11.3 303 10.5
2007-09-11 08:11:36 51°15.906 2°49.469 311.4 11.2 303 10.3
2007-09-11 08:11:40 51°15.913 2°49.451 311.4 11.6 304 10.4
2007-09-11 08:11:45 51°15.922 2°49.429 312.2 11.7 304 10.6
2007-09-11 08:11:50 51°15.931 2°49.408 312.5 11.9 303 11
2007-09-11 08:11:55 51°15.94 2°49.385 311.8 12 303 11.1
2007-09-11 08:12:00 51°15.95 2°49.363 311.7 12.1 304 11.2
2007-09-11 08:12:05 51°15.958 2°49.34 311.7 12 302 11
2007-09-11 08:12:10 51°15.968 2°49.318 311.5 12 303 11.1
2007-09-11 08:12:15 51°15.976 2°49.294 310.6 12 302 11.7
2007-09-11 08:12:20 51°15.985 2°49.272 311.3 12 303 11.9
2007-09-11 08:12:26 51°15.995 2°49.247 310.9 11.6 301 10.9
2007-09-11 08:12:31 51°16.004 2°49.225 312.3 11.7 301 10.8
2007-09-11 08:12:36 51°16.012 2°49.203 312.8 11.8 300 11.1
2007-09-11 08:12:40 51°16.019 2°49.185 310.6 12 300 11.5
2007-09-11 08:12:45 51°16.028 2°49.163 311.1 11.8 303 11.5
2007-09-11 08:12:50 51°16.036 2°49.14 311.6 11.9 301 12.1
2007-09-11 08:12:55 51°16.044 2°49.117 310.5 12 299 12.3
2007-09-11 08:13:00 51°16.051 2°49.093 307.3 12.2 296 12.6
2007-09-11 08:13:05 51°16.056 2°49.068 301.7 12 288 12.7
2007-09-11 08:13:10 51°16.061 2°49.043 295.8 11.6 285 12.3
2007-09-11 08:13:15 51°16.063 2°49.019 291.9 11 280 12.7
2007-09-11 08:13:20 51°16.065 2°48.996 288.8 10.3 274 12.5
2007-09-11 08:13:25 51°16.066 2°48.975 286 9.6 275 12.4
2007-09-11 08:13:30 51°16.066 2°48.954 282.5 9.1 269 12.6
2007-09-11 08:13:35 51°16.065 2°48.935 279 8.6 269 13
2007-09-11 08:13:40 51°16.063 2°48.917 275.8 8.3 262 13.1
2007-09-11 08:13:45 51°16.062 2°48.9 274 7.9 263 13.2
2007-09-11 08:13:50 51°16.06 2°48.883 272.7 7.7 259 13.1
2007-09-11 08:13:55 51°16.059 2°48.867 271.4 7.4 262 13.1
2007-09-11 08:14:00 51°16.055 2°48.851 269 7.3 253 13.3
2007-09-11 08:14:05 51°16.054 2°48.836 267.1 7 258 13.4
2007-09-11 08:14:10 51°16.05 2°48.821 266.9 7 252 13.4
2007-09-11 08:14:15 51°16.048 2°48.807 266.6 6.8 257 13.5
2007-09-11 08:14:20 51°16.045 2°48.793 265.5 6.7 251 13.7
2007-09-11 08:14:25 51°16.042 2°48.779 265 6.5 249 13.5
2007-09-11 08:14:30 51°16.04 2°48.765 263.5 6.3 247 13.2
2007-09-11 08:14:35 51°16.036 2°48.752 262.3 6.1 254 13.1
2007-09-11 08:14:40 51°16.032 2°48.74 260.9 6.3 243 12.9
2007-09-11 08:14:45 51°16.03 2°48.728 260.5 6 254 13.1
2007-09-11 08:14:51 51°16.025 2°48.713 259.9 6.1 244 13.4
2007-09-11 08:14:55 51°16.023 2°48.703 260.5 5.9 247 13.5
2007-09-11 08:15:00 51°16.02 2°48.691 259.9 5.8 246 13.6
2007-09-11 08:15:05 51°16.017 2°48.68 259.9 5.6 248 13.9
2007-09-11 08:15:10 51°16.013 2°48.669 260.1 5.3 246 13.9
2007-09-11 08:15:16 51°16.01 2°48.657 261 5.1 243 13.8
2007-09-11 08:15:20 51°16.008 2°48.65 261.3 4.7 242 13.5
2007-09-11 08:15:25 51°16.005 2°48.641 261.9 4.6 242 13.2
2007-09-11 08:15:30 51°16.002 2°48.631 261.4 4.5 250 13.2
2007-09-11 08:15:35 51°15.999 2°48.623 262.2 4.5 236 13.2
2007-09-11 08:15:40 51°15.997 2°48.615 262.4 4 253 13.5
2007-09-11 08:15:45 51°15.994 2°48.607 264.2 4.2 236 13.8
2007-09-11 08:15:50 51°15.992 2°48.599 263.4 3.7 248 13.9
2007-09-11 08:15:55 51°15.989 2°48.592 265.4 3.7 237 14.2
2007-09-11 08:16:00 51°15.987 2°48.585 264.8 3.6 239 14.4
2007-09-11 08:16:05 51°15.985 2°48.578 265.2 3.6 242 14.2
2007-09-11 08:16:10 51°15.982 2°48.572 264.6 3.3 244 14.1
2007-09-11 08:16:15 51°15.98 2°48.566 265.6 3.3 238 14.2
2007-09-11 08:16:20 51°15.978 2°48.56 266.7 3.1 241 14.1
2007-09-11 08:16:25 51°15.975 2°48.554 265.6 3.3 229 14.2
2007-09-11 08:16:30 51°15.974 2°48.548 267 2.9 240 13.6
2007-09-11 08:16:35 51°15.97 2°48.543 265 3.1 237 13.5
2007-09-11 08:16:40 51°15.969 2°48.538 265.4 2.9 234 13.1
2007-09-11 08:16:45 51°15.965 2°48.533 265.4 3 231 13.5
2007-09-11 08:16:50 51°15.964 2°48.528 266.5 2.7 235 13.5
2007-09-11 08:16:55 51°15.96 2°48.523 264.9 2.8 233 14.1
2007-09-11 08:17:00 51°15.959 2°48.518 264.6 2.5 237 13.8
2007-09-11 08:17:05 51°15.956 2°48.513 263.8 2.7 229 14
2007-09-11 08:17:10 51°15.954 2°48.509 263.7 2.8 227 14.3
2007-09-11 08:17:15 51°15.952 2°48.504 263.8 2.5 231 14.4
2007-09-11 08:17:20 51°15.95 2°48.5 264.1 2.6 228 14.2
2007-09-11 08:17:25 51°15.948 2°48.496 264.7 2.4 233 14.1
2007-09-11 08:17:30 51°15.945 2°48.492 264.1 2.5 233 14.1
2007-09-11 08:17:35 51°15.943 2°48.488 265 2.3 235 14.2
2007-09-11 08:17:40 51°15.941 2°48.484 264.5 2.8 223 14.1
2007-09-11 08:17:45 51°15.939 2°48.48 265.7 2.2 238 14
2007-09-11 08:17:50 51°15.936 2°48.477 266.3 2.8 215 13.9
2007-09-11 08:17:55 51°15.934 2°48.473 266 3.3 202 12.8
2007-09-11 08:18:00 51°15.932 2°48.469 264.9 1.8 268 12.3
2007-09-11 08:18:05 51°15.927 2°48.468 263.3 3.4 198 12.8
2007-09-11 08:18:10 51°15.928 2°48.464 263.5 2 228 12.3
2007-09-11 08:18:15 51°15.924 2°48.461 263.2 2.3 218 12.9
2007-09-11 08:18:20 51°15.922 2°48.458 261.5 2.2 221 13.5
2007-09-11 08:18:25 51°15.92 2°48.454 263.9 2 222 13.7
2007-09-11 08:18:30 51°15.917 2°48.452 261.7 2.2 220 14.3
2007-09-11 08:18:35 51°15.915 2°48.449 261.7 2.2 216 14.2
2007-09-11 08:18:40 51°15.913 2°48.446 261.2 1.9 227 14.4
2007-09-11 08:18:45 51°15.911 2°48.443 262.2 2.1 210 14.3
2007-09-11 08:18:50 51°15.909 2°48.44 260.3 2.1 211 14.1
2007-09-11 08:18:55 51°15.906 2°48.438 260.5 1.9 219 14
2007-09-11 08:19:00 51°15.904 2°48.435 259.8 2 219 14.2
2007-09-11 08:19:05 51°15.902 2°48.433 259.6 2 217 14.4
2007-09-11 08:19:10 51°15.9 2°48.43 258.5 2.2 209 14.1
2007-09-11 08:19:15 51°15.898 2°48.428 258.3 1.7 224 13.8
2007-09-11 08:19:20 51°15.895 2°48.426 258.7 2 207 13.7
2007-09-11 08:19:25 51°15.894 2°48.423 257.2 1.9 218 13.5
2007-09-11 08:19:30 51°15.892 2°48.42 257.9 1.8 228 13.5
2007-09-11 08:19:35 51°15.889 2°48.418 257.8 2 216 13.7
2007-09-11 08:19:40 51°15.888 2°48.415 259.9 1.5 223 13.1
2007-09-11 08:19:45 51°15.885 2°48.413 257.9 2 213 13.3
2007-09-11 08:19:51 51°15.882 2°48.41 257.7 1.9 209 13.4
2007-09-11 08:19:55 51°15.879 2°48.409 257.3 2.2 204 13.4
2007-09-11 08:20:00 51°15.879 2°48.406 256.8 1.5 227 13
2007-09-11 08:20:05 51°15.875 2°48.404 254.8 2.2 209 13.1
2007-09-11 08:20:10 51°15.873 2°48.402 255.9 1.8 213 13.1
2007-09-11 08:20:16 51°15.87 2°48.4 254.2 2 209 13.3
2007-09-11 08:20:20 51°15.869 2°48.398 253.6 1.6 219 13.4
2007-09-11 08:20:25 51°15.865 2°48.398 252.9 2.5 191 13.6
2007-09-11 08:20:30 51°15.864 2°48.395 252.1 1.6 216 13.4
2007-09-11 08:20:35 51°15.861 2°48.394 250.7 2.3 198 13.2
2007-09-11 08:20:40 51°15.86 2°48.391 248.4 1.5 238 13.4
2007-09-11 08:20:45 51°15.856 2°48.391 249.9 2.9 180 13.2
2007-09-11 08:20:50 51°15.855 2°48.388 248.4 1.5 238 12.6
2007-09-11 08:20:55 51°15.852 2°48.387 246.4 1.6 211 12.7
2007-09-11 08:21:00 51°15.85 2°48.385 246.6 1.9 200 12.7
2007-09-11 08:21:05 51°15.849 2°48.383 245.3 1.6 230 12.9
2007-09-11 08:21:10 51°15.846 2°48.382 246.2 2 192 12.9
2007-09-11 08:21:15 51°15.844 2°48.38 245.4 1.4 227 13.2
2007-09-11 08:21:20 51°15.842 2°48.379 245.3 1.8 196 13.3
2007-09-11 08:21:25 51°15.84 2°48.377 244.8 1.6 216 13.4
2007-09-11 08:21:30 51°15.838 2°48.375 244.3 1.9 199 13.4
2007-09-11 08:21:35 51°15.836 2°48.374 243.8 1.7 211 13.4
2007-09-11 08:21:40 51°15.834 2°48.372 245.3 1.5 209 12.8
2007-09-11 08:21:45 51°15.831 2°48.371 243.1 2.2 197 13
2007-09-11 08:21:50 51°15.83 2°48.368 244.8 1.5 214 12.4
2007-09-11 08:21:55 51°15.826 2°48.366 244 1.9 238 12.6
2007-09-11 08:22:00 51°15.824 2°48.365 246.6 2.4 196 12.2
2007-09-11 08:22:05 51°15.822 2°48.36 244.3 2.3 230 12.3
2007-09-11 08:22:10 51°15.819 2°48.357 246.3 2.7 212 12.5
2007-09-11 08:22:15 51°15.816 2°48.353 246.6 2.7 236 12.8
2007-09-11 08:22:20 51°15.813 2°48.348 249 3 225 12.9
2007-09-11 08:22:25 51°15.81 2°48.343 251.1 3.1 232 12.8
2007-09-11 08:22:30 51°15.808 2°48.338 252.8 3.3 230 12.8
2007-09-11 08:22:36 51°15.805 2°48.331 255.7 3.1 236 12.6
2007-09-11 08:22:40 51°15.802 2°48.326 255.4 3.4 238 12.9
2007-09-11 08:22:45 51°15.8 2°48.32 258.8 3.4 232 12.7
2007-09-11 08:22:50 51°15.798 2°48.313 260.8 3.4 252 12.3
2007-09-11 08:22:55 51°15.795 2°48.306 262.8 3.7 236 12.5
2007-09-11 08:23:00 51°15.792 2°48.3 265.4 3.2 245 12.3
2007-09-11 08:23:05 51°15.79 2°48.293 267.1 3.5 239 12.5
2007-09-11 08:23:10 51°15.789 2°48.286 268.4 3.1 245 12.6
2007-09-11 08:23:15 51°15.786 2°48.28 270.6 3.2 243 12.9
2007-09-11 08:23:20 51°15.785 2°48.275 270.8 2.9 248 12.9
2007-09-11 08:23:25 51°15.783 2°48.269 272.3 3 232 12.8
2007-09-11 08:23:30 51°15.781 2°48.264 273.1 2.8 239 12.6
2007-09-11 08:23:35 51°15.778 2°48.259 271.4 2.9 240 12.6
2007-09-11 08:23:40 51°15.777 2°48.253 272.6 2.7 250 12.6
2007-09-11 08:23:45 51°15.774 2°48.247 274.2 3.5 235 13
2007-09-11 08:23:50 51°15.774 2°48.24 274.9 3.2 248 12.6
2007-09-11 08:23:55 51°15.771 2°48.234 275.8 3.2 250 13
2007-09-11 08:24:00 51°15.77 2°48.227 276.9 3.8 241 12.9
2007-09-11 08:24:05 51°15.768 2°48.219 278.3 3.2 253 12.7
2007-09-11 08:24:10 51°15.767 2°48.212 280 3.5 253 12.5
2007-09-11 08:24:15 51°15.765 2°48.204 280.9 3.3 258 12.6
2007-09-11 08:24:20 51°15.765 2°48.197 282 3.7 249 12.4
2007-09-11 08:24:25 51°15.763 2°48.189 285 3.4 259 12.6
2007-09-11 08:24:30 51°15.762 2°48.181 285.2 3.7 259 12.7
2007-09-11 08:24:36 51°15.761 2°48.172 287.4 3.6 263 12.9
2007-09-11 08:24:40 51°15.761 2°48.165 289.2 4.2 258 12.8
2007-09-11 08:24:45 51°15.761 2°48.157 291.9 3.6 273 12.4
2007-09-11 08:24:50 51°15.761 2°48.147 294.8 4.4 266 12.8
2007-09-11 08:24:55 51°15.761 2°48.138 296.6 4.1 278 13.2
2007-09-11 08:25:00 51°15.762 2°48.128 299.7 4.6 273 13.2
2007-09-11 08:25:05 51°15.764 2°48.119 302.6 4.2 287 13.2
2007-09-11 08:25:10 51°15.764 2°48.109 305.5 4.1 280 13.3
2007-09-11 08:25:15 51°15.765 2°48.101 306.9 3.9 283 13
2007-09-11 08:25:20 51°15.766 2°48.093 308.4 3.3 282 12.9
2007-09-11 08:25:25 51°15.767 2°48.086 309.2 3.2 278 12.8
2007-09-11 08:25:30 51°15.768 2°48.08 309.7 3.2 274 12.9
2007-09-11 08:25:35 51°15.768 2°48.073 311.9 2.7 280 13
2007-09-11 08:25:40 51°15.769 2°48.066 312.3 3 274 13.2
2007-09-11 08:25:45 51°15.769 2°48.06 312.5 2.5 282 13.4
2007-09-11 08:25:50 51°15.769 2°48.054 312.4 3 268 13.7
2007-09-11 08:25:55 51°15.769 2°48.048 312.6 2.7 283 13.8
2007-09-11 08:26:00 51°15.769 2°48.041 312.1 3.5 265 14
2007-09-11 08:26:05 51°15.77 2°48.036 310.6 2.7 276 13.4
2007-09-11 08:26:10 51°15.77 2°48.029 311.4 2.8 272 13.3
2007-09-11 08:26:15 51°15.77 2°48.023 311.4 2.6 282 13.4
2007-09-11 08:26:20 51°15.77 2°48.016 311 3.2 274 13.6
2007-09-11 08:26:25 51°15.771 2°48.01 311.5 2.9 278 13.4
2007-09-11 08:26:30 51°15.772 2°48.003 314.3 2.8 283 13
2007-09-11 08:26:35 51°15.773 2°47.996 313.5 2.9 281 13
2007-09-11 08:26:40 51°15.773 2°47.988 312.6 3.1 277 13
2007-09-11 08:26:45 51°15.773 2°47.981 311.8 3.2 279 13.3
2007-09-11 08:26:50 51°15.774 2°47.975 312.1 3.2 277 13.6
2007-09-11 08:26:55 51°15.775 2°47.967 312.9 3 284 13.7
2007-09-11 08:27:00 51°15.775 2°47.96 312.7 3.3 277 14.1
2007-09-11 08:27:05 51°15.776 2°47.953 312.3 3.3 282 14.1
2007-09-11 08:27:10 51°15.777 2°47.945 313.2 3.3 283 14.5
2007-09-11 08:27:15 51°15.778 2°47.937 311.5 3.6 277 14.4
2007-09-11 08:27:20 51°15.778 2°47.931 311.8 3.1 285 13.6
2007-09-11 08:27:25 51°15.779 2°47.923 311.6 3.2 279 13.1
2007-09-11 08:27:30 51°15.779 2°47.916 309.6 3 278 13.3
2007-09-11 08:27:35 51°15.78 2°47.909 308.5 3.5 279 13.3
2007-09-11 08:27:40 51°15.781 2°47.902 310.3 3.4 284 13.5
2007-09-11 08:27:45 51°15.782 2°47.895 310.6 3.6 280 14.1
2007-09-11 08:27:50 51°15.783 2°47.887 310.8 3.6 286 14.3
2007-09-11 08:27:55 51°15.784 2°47.879 311 3.7 286 14.7
2007-09-11 08:28:00 51°15.786 2°47.87 310.1 4.1 281 14.9
2007-09-11 08:28:05 51°15.787 2°47.862 309 4 284 15
2007-09-11 08:28:10 51°15.788 2°47.853 308.5 4 275 14.7
2007-09-11 08:28:15 51°15.789 2°47.846 308.4 3.3 284 14.2
2007-09-11 08:28:20 51°15.789 2°47.838 308.4 3.5 277 14.4
2007-09-11 08:28:25 51°15.79 2°47.831 307.1 3.7 279 14.7
2007-09-11 08:28:30 51°15.791 2°47.822 307.4 3.7 279 14.9
2007-09-11 08:28:35 51°15.792 2°47.814 307.4 3.9 281 15.1
2007-09-11 08:28:40 51°15.793 2°47.806 307.7 4 279 15.3
2007-09-11 08:28:45 51°15.794 2°47.798 307.7 3.9 284 14.9
2007-09-11 08:28:50 51°15.795 2°47.789 307.9 4 283 14.9
2007-09-11 08:28:55 51°15.797 2°47.78 308 4.2 287 14.7
2007-09-11 08:29:00 51°15.799 2°47.77 308.2 4.3 287 14.7
2007-09-11 08:29:05 51°15.801 2°47.76 307.6 4.7 287 14.7
2007-09-11 08:29:10 51°15.802 2°47.75 306.1 4.8 282 14.8
2007-09-11 08:29:16 51°15.804 2°47.739 304.5 4.8 283 14.8
2007-09-11 08:29:20 51°15.805 2°47.73 304.6 4.8 284 15.2
2007-09-11 08:29:25 51°15.807 2°47.721 302.9 4.8 284 15.2
2007-09-11 08:29:30 51°15.808 2°47.711 301.9 4.6 287 14.9
2007-09-11 08:29:35 51°15.809 2°47.7 301.7 4.8 277 14.9
2007-09-11 08:29:40 51°15.81 2°47.69 299.9 4.9 277 15
2007-09-11 08:29:45 51°15.811 2°47.679 299.7 4.6 283 14.9
2007-09-11 08:29:50 51°15.811 2°47.669 298.6 4.6 274 15.3
2007-09-11 08:29:55 51°15.813 2°47.659 296.8 4.6 279 15.1
2007-09-11 08:30:00 51°15.813 2°47.648 296.5 4.6 278 15.4
2007-09-11 08:30:05 51°15.813 2°47.638 295.4 4.7 273 15.4
2007-09-11 08:30:10 51°15.814 2°47.628 294.6 4.4 279 15.6
2007-09-11 08:30:15 51°15.814 2°47.618 294 4.8 268 15.6
2007-09-11 08:30:20 51°15.815 2°47.608 293.1 4.4 279 15.5
2007-09-11 08:30:25 51°15.814 2°47.597 292.3 4.4 267 15.5
2007-09-11 08:30:30 51°15.815 2°47.589 291.1 4 267 15.4
2007-09-11 08:30:35 51°15.814 2°47.579 290.1 3.8 267 15.1
2007-09-11 08:30:40 51°15.814 2°47.571 289.6 3.7 270 14.9
2007-09-11 08:30:45 51°15.813 2°47.562 288.5 3.8 264 14.4
2007-09-11 08:30:50 51°15.813 2°47.554 290 3.4 271 14.6
2007-09-11 08:30:56 51°15.812 2°47.544 289.3 3.9 260 15
2007-09-11 08:31:00 51°15.812 2°47.538 289.7 3.6 272 15.4
2007-09-11 08:31:05 51°15.811 2°47.53 290.1 3.9 259 15.8
2007-09-11 08:31:10 51°15.811 2°47.522 289.5 3.5 271 16
2007-09-11 08:31:15 51°15.81 2°47.514 289.8 3.8 257 15.9
2007-09-11 08:31:20 51°15.81 2°47.507 289.3 3.3 269 15.7
2007-09-11 08:31:25 51°15.809 2°47.499 288.3 3.6 256 16
2007-09-11 08:31:30 51°15.809 2°47.491 288.7 3.5 263 15.7
2007-09-11 08:31:36 51°15.807 2°47.482 287.6 3.6 263 15.9
2007-09-11 08:31:40 51°15.807 2°47.475 287 3.6 264 15.8
2007-09-11 08:31:45 51°15.806 2°47.468 287.2 3.5 259 15.9
2007-09-11 08:31:50 51°15.805 2°47.461 285.6 3.5 259 15.9
2007-09-11 08:31:55 51°15.804 2°47.453 285.5 3.3 258 15.8
2007-09-11 08:32:00 51°15.803 2°47.445 285.3 3.4 256 15.5
2007-09-11 08:32:05 51°15.802 2°47.438 284.1 3.4 260 15.5
2007-09-11 08:32:10 51°15.801 2°47.431 283.9 3.5 253 15.4
2007-09-11 08:32:15 51°15.8 2°47.424 285.5 3.2 262 15
2007-09-11 08:32:21 51°15.798 2°47.414 283.7 3.8 250 15.1
2007-09-11 08:32:25 51°15.799 2°47.409 283.3 3.5 261 14.8
2007-09-11 08:32:30 51°15.797 2°47.401 284.4 3.5 261 15.1
2007-09-11 08:32:35 51°15.796 2°47.393 286.5 3.6 262 15.4
2007-09-11 08:32:40 51°15.795 2°47.385 286.2 4 255 15.6
2007-09-11 08:32:45 51°15.795 2°47.376 286.9 3.7 273 15.4
2007-09-11 08:32:50 51°15.793 2°47.367 286.6 4.2 261 15.9
2007-09-11 08:32:55 51°15.793 2°47.358 285.9 4.3 261 16
2007-09-11 08:33:00 51°15.792 2°47.349 287.4 4.2 264 15.3
2007-09-11 08:33:05 51°15.792 2°47.339 285.4 4.4 266 15.3
2007-09-11 08:33:10 51°15.791 2°47.329 286.7 4.6 266 15.6
2007-09-11 08:33:15 51°15.791 2°47.319 286.5 4.4 269 15.8
2007-09-11 08:33:20 51°15.79 2°47.309 286.8 4.5 265 15.6
2007-09-11 08:33:25 51°15.79 2°47.299 287.6 4.5 271 15.9
2007-09-11 08:33:30 51°15.789 2°47.289 288.1 4.6 264 16
2007-09-11 08:33:35 51°15.789 2°47.279 287.7 4.4 270 15.9
2007-09-11 08:33:40 51°15.789 2°47.27 287.7 4.5 262 15.6
2007-09-11 08:33:45 51°15.789 2°47.261 288.7 4.1 269 15.7
2007-09-11 08:33:50 51°15.788 2°47.25 286.6 4.6 262 15.8
2007-09-11 08:33:55 51°15.787 2°47.24 286 4.5 267 16
2007-09-11 08:34:00 51°15.787 2°47.23 285.2 4.5 265 16.2
2007-09-11 08:34:05 51°15.786 2°47.22 285.3 4.5 266 16.4
2007-09-11 08:34:10 51°15.786 2°47.211 285.4 4.5 262 16.2
2007-09-11 08:34:15 51°15.785 2°47.201 285.8 4.2 268 16.2
2007-09-11 08:34:20 51°15.786 2°47.191 286.4 4.2 265 15.9
2007-09-11 08:34:25 51°15.784 2°47.181 286.2 4.4 264 16
2007-09-11 08:34:30 51°15.785 2°47.172 285.4 4.5 263 16
2007-09-11 08:34:35 51°15.784 2°47.163 285.1 4.2 276 16.1
2007-09-11 08:34:41 51°15.783 2°47.151 284.7 4.7 259 16.1
2007-09-11 08:34:45 51°15.783 2°47.144 284.7 4.3 273 16
2007-09-11 08:34:50 51°15.781 2°47.134 283.6 4.6 256 16.3
2007-09-11 08:34:55 51°15.781 2°47.125 282.3 4.2 262 15.9
2007-09-11 08:35:00 51°15.779 2°47.115 280.9 4.5 253 15.7
2007-09-11 08:35:05 51°15.78 2°47.106 279.4 4.1 265 15.8
2007-09-11 08:35:10 51°15.778 2°47.097 278.1 3.9 266 15.7
2007-09-11 08:35:15 51°15.777 2°47.088 280.5 3.9 259 15.9
2007-09-11 08:35:20 51°15.775 2°47.079 277.1 4.2 254 16
2007-09-11 08:35:25 51°15.774 2°47.071 280.8 4.1 254 15.8
2007-09-11 08:35:31 51°15.773 2°47.061 280.1 4 257 15.9
2007-09-11 08:35:36 51°15.771 2°47.052 280.2 4 261 16.4
2007-09-11 08:35:40 51°15.77 2°47.045 280.4 3.9 256 16.7
2007-09-11 08:35:45 51°15.769 2°47.037 278.7 3.8 257 16.5
2007-09-11 08:35:50 51°15.768 2°47.029 280.4 3.8 262 16.4
2007-09-11 08:35:56 51°15.767 2°47.018 279.5 4.1 257 16.5
2007-09-11 08:36:00 51°15.766 2°47.011 280.1 4.2 258 16.6
2007-09-11 08:36:05 51°15.765 2°47.002 280.2 4.3 262 16.3
2007-09-11 08:36:10 51°15.764 2°46.992 279.6 4.6 261 16.6
2007-09-11 08:36:15 51°15.763 2°46.982 278.9 4.6 259 16.7
2007-09-11 08:36:20 51°15.762 2°46.972 279.3 4.4 265 16.5
2007-09-11 08:36:25 51°15.761 2°46.962 279.9 4.6 260 16.4
2007-09-11 08:36:30 51°15.76 2°46.953 278.2 4.4 263 16.4
2007-09-11 08:36:35 51°15.759 2°46.943 277.5 4.4 259 16.5
2007-09-11 08:36:40 51°15.758 2°46.934 278.2 4.3 261 16.3
2007-09-11 08:36:45 51°15.757 2°46.924 278.1 4.2 262 16.2
2007-09-11 08:36:50 51°15.756 2°46.915 277.5 4.2 258 15.9
2007-09-11 08:36:55 51°15.755 2°46.907 278.4 4.1 256 15.5
2007-09-11 08:37:00 51°15.753 2°46.898 277.6 4 257 15.7
2007-09-11 08:37:05 51°15.752 2°46.889 276.4 4 256 15.9
2007-09-11 08:37:10 51°15.751 2°46.88 276.3 4.1 256 16.1
2007-09-11 08:37:15 51°15.75 2°46.872 275.9 4.1 261 16.5
2007-09-11 08:37:20 51°15.749 2°46.863 277.3 4 257 16.6
2007-09-11 08:37:25 51°15.748 2°46.854 277.4 3.8 259 16.3
2007-09-11 08:37:30 51°15.746 2°46.846 276.3 3.8 249 16.2
2007-09-11 08:37:35 51°15.744 2°46.838 275.3 3.7 256 15.8
2007-09-11 08:37:40 51°15.743 2°46.829 274.8 4 256 15.8
2007-09-11 08:37:45 51°15.741 2°46.82 273 4.3 249 15.9
2007-09-11 08:37:51 51°15.74 2°46.81 275.4 4 256 15.6
2007-09-11 08:37:55 51°15.738 2°46.803 273.4 4 254 16.1
2007-09-11 08:38:00 51°15.737 2°46.794 274.2 4.1 255 16.4
2007-09-11 08:38:05 51°15.736 2°46.785 273.6 4 261 16.9
2007-09-11 08:38:10 51°15.734 2°46.776 274.2 4.2 249 17.1
2007-09-11 08:38:16 51°15.733 2°46.766 274.5 4.1 266 17.4
2007-09-11 08:38:20 51°15.731 2°46.759 276.3 4.3 255 17.4
2007-09-11 08:38:25 51°15.729 2°46.75 275.5 4.5 249 17.6
2007-09-11 08:38:30 51°15.729 2°46.74 274.8 4.2 257 16.8
2007-09-11 08:38:36 51°15.726 2°46.729 274.1 4.2 258 16.8
2007-09-11 08:38:40 51°15.725 2°46.722 273.4 4.4 254 16.9
2007-09-11 08:38:45 51°15.723 2°46.713 274.6 4.4 254 16.9
2007-09-11 08:38:50 51°15.723 2°46.703 274.3 4.4 254 16.9
2007-09-11 08:38:55 51°15.721 2°46.694 274.1 4.2 264 17.1
2007-09-11 08:39:00 51°15.719 2°46.685 274.2 4.5 251 17.1
2007-09-11 08:39:05 51°15.719 2°46.676 274.4 4 263 16.9
2007-09-11 08:39:10 51°15.716 2°46.667 273.9 4.3 253 16.9
2007-09-11 08:39:15 51°15.716 2°46.658 274.2 4.2 259 16.8
2007-09-11 08:39:20 51°15.714 2°46.648 273.9 4.3 258 16.8
2007-09-11 08:39:25 51°15.714 2°46.638 274.9 4.3 265 17.1
2007-09-11 08:39:30 51°15.711 2°46.628 275.8 4.8 254 17.2
2007-09-11 08:39:35 51°15.712 2°46.619 275.4 4.4 265 17.1
2007-09-11 08:39:40 51°15.71 2°46.608 277.1 4.8 256 17
2007-09-11 08:39:45 51°15.71 2°46.599 277.3 4.6 267 17
2007-09-11 08:39:50 51°15.707 2°46.588 276.1 4.8 259 17.1
2007-09-11 08:39:55 51°15.707 2°46.578 277.9 4.6 260 17.1
2007-09-11 08:40:00 51°15.706 2°46.569 276.7 4.4 261 17
2007-09-11 08:40:05 51°15.705 2°46.56 277.8 4 263 17.2
2007-09-11 08:40:10 51°15.703 2°46.551 276.9 4.1 256 17.3
2007-09-11 08:40:15 51°15.703 2°46.543 278.8 3.8 261 16.9
2007-09-11 08:40:20 51°15.702 2°46.535 278.6 3.8 257 16.5
2007-09-11 08:40:25 51°15.7 2°46.526 277.8 3.7 262 16.9
2007-09-11 08:40:30 51°15.699 2°46.518 278.2 4.1 252 16.9
2007-09-11 08:40:36 51°15.698 2°46.508 277.8 4 263 17.2
2007-09-11 08:40:40 51°15.698 2°46.501 278.7 3.9 260 16.9
2007-09-11 08:40:45 51°15.696 2°46.491 279.2 4 261 17
2007-09-11 08:40:50 51°15.695 2°46.482 278 4.4 256 17.4
2007-09-11 08:40:56 51°15.694 2°46.471 278.2 4.3 262 17.1
2007-09-11 08:41:00 51°15.693 2°46.463 278.6 4.3 262 17.3
2007-09-11 08:41:05 51°15.693 2°46.454 278.9 4.2 263 17.1
2007-09-11 08:41:10 51°15.691 2°46.444 278.2 3.9 265 17.1
2007-09-11 08:41:15 51°15.69 2°46.435 277.9 4.1 253 17.3
2007-09-11 08:41:20 51°15.689 2°46.427 277.1 4.1 264 17
2007-09-11 08:41:25 51°15.687 2°46.418 277.2 4.2 252 17.1
2007-09-11 08:41:30 51°15.687 2°46.41 276.8 3.8 252 16.7
2007-09-11 08:41:35 51°15.685 2°46.402 276.4 3.7 256 17
2007-09-11 08:41:40 51°15.684 2°46.394 276.4 3.7 260 17
2007-09-11 08:41:45 51°15.683 2°46.385 275 3.9 256 17
2007-09-11 08:41:50 51°15.682 2°46.377 276.3 3.8 260 17.3
2007-09-11 08:41:55 51°15.68 2°46.369 276.5 4 256 17.5
2007-09-11 08:42:00 51°15.68 2°46.36 276.8 4 262 17.6
2007-09-11 08:42:05 51°15.678 2°46.351 277.4 4.2 255 17.5
2007-09-11 08:42:10 51°15.678 2°46.342 277.1 4.2 261 17.6
2007-09-11 08:42:15 51°15.676 2°46.333 276.6 4.1 259 17.6
2007-09-11 08:42:20 51°15.675 2°46.324 276.8 4.2 257 17.6
2007-09-11 08:42:25 51°15.673 2°46.316 275 4 255 17.1
2007-09-11 08:42:30 51°15.672 2°46.307 274.9 4.1 262 16.9
2007-09-11 08:42:36 51°15.67 2°46.296 273.9 4.3 254 17.1
2007-09-11 08:42:40 51°15.669 2°46.288 272.3 4.4 255 16.9
2007-09-11 08:42:45 51°15.668 2°46.279 272.1 4.3 257 17
2007-09-11 08:42:50 51°15.666 2°46.269 270 4.4 256 16.9
2007-09-11 08:42:55 51°15.664 2°46.261 268.5 4.3 250 17.2
2007-09-11 08:43:00 51°15.662 2°46.251 266.6 4.5 252 17.2
2007-09-11 08:43:05 51°15.66 2°46.242 264.8 4.5 252 17.2
2007-09-11 08:43:10 51°15.658 2°46.232 262.5 4.4 251 17.2
2007-09-11 08:43:15 51°15.655 2°46.223 261.3 4.6 252 17.3
2007-09-11 08:43:20 51°15.653 2°46.214 260.5 4.5 247 17.4
2007-09-11 08:43:25 51°15.651 2°46.205 260.1 4.5 248 17.5
2007-09-11 08:43:30 51°15.648 2°46.196 259.6 4.4 245 17.4
2007-09-11 08:43:35 51°15.646 2°46.187 258.8 4.5 251 17.7
2007-09-11 08:43:40 51°15.643 2°46.178 258.2 4.6 239 17.9
2007-09-11 08:43:45 51°15.641 2°46.168 258.3 4.6 243 17.4
2007-09-11 08:43:50 51°15.638 2°46.159 257.3 4.5 250 17.5
2007-09-11 08:43:55 51°15.635 2°46.15 257.2 4.7 242 17.5
2007-09-11 08:44:00 51°15.633 2°46.14 257.2 4.5 252 17.4
2007-09-11 08:44:05 51°15.63 2°46.132 255.3 4.6 238 17.7
2007-09-11 08:44:10 51°15.628 2°46.123 256.6 4.4 247 17.7
2007-09-11 08:44:15 51°15.625 2°46.114 255.6 4.4 244 17.9
2007-09-11 08:44:20 51°15.622 2°46.106 255.1 4.4 240 17.7
2007-09-11 08:44:25 51°15.619 2°46.098 254.9 4.2 240 17.5
2007-09-11 08:44:30 51°15.616 2°46.089 254.3 4.5 240 17.7
2007-09-11 08:44:35 51°15.614 2°46.081 254.2 4.3 248 17.7
2007-09-11 08:44:40 51°15.61 2°46.073 254.5 4.5 234 17.6
2007-09-11 08:44:45 51°15.608 2°46.064 254.6 4.3 246 17.3
2007-09-11 08:44:51 51°15.604 2°46.054 253.5 4.3 242 17.1
2007-09-11 08:44:55 51°15.602 2°46.047 253.5 4.3 240 17.4
2007-09-11 08:45:00 51°15.599 2°46.039 253.9 4.4 245 17.5
2007-09-11 08:45:05 51°15.596 2°46.03 254.6 4.5 237 17.5
2007-09-11 08:45:10 51°15.594 2°46.022 253.6 4.3 240 17.2
2007-09-11 08:45:15 51°15.591 2°46.013 254.4 4.3 241 17
2007-09-11 08:45:20 51°15.588 2°46.005 254.5 4.4 246 17.3
2007-09-11 08:45:25 51°15.584 2°45.996 254.2 4.5 236 17.8
2007-09-11 08:45:30 51°15.582 2°45.987 254.6 4.5 242 17.7
2007-09-11 08:45:35 51°15.579 2°45.979 255.4 4.4 240 17.4
2007-09-11 08:45:41 51°15.576 2°45.968 255.7 4.5 245 17.5
2007-09-11 08:45:45 51°15.574 2°45.961 255.9 4.4 244 17.6
2007-09-11 08:45:50 51°15.571 2°45.952 256.2 4.5 246 17.8
2007-09-11 08:45:55 51°15.569 2°45.944 258.3 4.4 243 17.7
2007-09-11 08:46:00 51°15.566 2°45.934 257.2 4.4 250 17.8
2007-09-11 08:46:05 51°15.563 2°45.926 257 4.5 243 17.9
2007-09-11 08:46:10 51°15.561 2°45.917 256.3 4.4 240 17.9
2007-09-11 08:46:15 51°15.558 2°45.908 256.7 4.5 245 17.6
2007-09-11 08:46:20 51°15.555 2°45.899 255.9 4.5 239 17.4
2007-09-11 08:46:25 51°15.553 2°45.89 255.4 4.3 252 16.9
2007-09-11 08:46:30 51°15.549 2°45.882 254.8 4.5 242 17.4
2007-09-11 08:46:35 51°15.547 2°45.873 254.5 4.5 236 17.3
2007-09-11 08:46:40 51°15.544 2°45.864 253.6 4.6 248 17.4
2007-09-11 08:46:45 51°15.541 2°45.856 252.4 4.6 238 17.7
2007-09-11 08:46:50 51°15.537 2°45.847 251.8 4.5 241 18
2007-09-11 08:46:55 51°15.535 2°45.838 251.3 4.7 241 17.8
2007-09-11 08:47:00 51°15.531 2°45.829 250.3 4.8 238 18.2
2007-09-11 08:47:05 51°15.528 2°45.82 250.4 4.6 241 18
2007-09-11 08:47:11 51°15.525 2°45.81 249.9 4.5 248 17.7
2007-09-11 08:47:15 51°15.522 2°45.803 249.3 4.6 238 18
2007-09-11 08:47:20 51°15.519 2°45.795 249.6 4.4 239 18.2
2007-09-11 08:47:25 51°15.516 2°45.786 250.4 4.5 240 17.9
2007-09-11 08:47:30 51°15.513 2°45.777 249.7 4.4 247 17.9
2007-09-11 08:47:36 51°15.509 2°45.767 248.9 4.5 237 17.7
2007-09-11 08:47:40 51°15.507 2°45.76 249.5 4.4 245 17.8
2007-09-11 08:47:45 51°15.504 2°45.752 249.1 4.6 234 17.9
2007-09-11 08:47:50 51°15.501 2°45.743 249.5 4.2 244 17.9
2007-09-11 08:47:55 51°15.498 2°45.735 249 4.5 237 17.9
2007-09-11 08:48:00 51°15.495 2°45.727 250.4 4.4 244 18.1
2007-09-11 08:48:05 51°15.492 2°45.719 250.5 4.3 234 17.7
2007-09-11 08:48:10 51°15.489 2°45.71 249.6 4.2 242 17.5
2007-09-11 08:48:15 51°15.486 2°45.702 250.5 4.3 237 17.4
2007-09-11 08:48:20 51°15.483 2°45.694 249.4 4.3 244 17.6
2007-09-11 08:48:25 51°15.479 2°45.686 248.8 4.5 236 17.9
2007-09-11 08:48:30 51°15.476 2°45.677 248.8 4.5 242 18
2007-09-11 08:48:35 51°15.472 2°45.669 248 4.6 232 17.6
2007-09-11 08:48:40 51°15.47 2°45.66 247.9 4.6 244 17.9
2007-09-11 08:48:45 51°15.466 2°45.651 248.2 4.8 235 17.9
2007-09-11 08:48:51 51°15.462 2°45.641 247.7 4.6 243 17.7
2007-09-11 08:48:55 51°15.459 2°45.635 247 4.6 236 18
2007-09-11 08:49:00 51°15.456 2°45.626 246.7 4.6 236 18.2
2007-09-11 08:49:05 51°15.453 2°45.617 248.1 4.6 236 18
2007-09-11 08:49:10 51°15.449 2°45.609 246.7 4.6 244 18.2
2007-09-11 08:49:16 51°15.444 2°45.599 247.5 4.7 231 18.3
2007-09-11 08:49:20 51°15.443 2°45.591 248.2 4.6 241 18
2007-09-11 08:49:25 51°15.439 2°45.583 247.5 4.7 238 18.2
2007-09-11 08:49:31 51°15.434 2°45.573 247.6 4.8 229 17.9
2007-09-11 08:49:36 51°15.432 2°45.564 248.4 4.5 244 17.6
2007-09-11 08:49:40 51°15.428 2°45.558 248.5 4.5 239 17.9
2007-09-11 08:49:45 51°15.425 2°45.549 249.4 4.6 239 17.9
2007-09-11 08:49:50 51°15.423 2°45.54 250.8 4.5 243 17.9
2007-09-11 08:49:55 51°15.42 2°45.532 250.8 4.4 239 17.9
2007-09-11 08:50:00 51°15.417 2°45.523 252.3 4.3 247 17.7
2007-09-11 08:50:05 51°15.413 2°45.515 253 4.4 237 17.8
2007-09-11 08:50:10 51°15.411 2°45.506 252.7 4.4 248 17.6
2007-09-11 08:50:15 51°15.407 2°45.498 252.4 4.5 237 17.7
2007-09-11 08:50:20 51°15.405 2°45.49 253.2 4.3 240 17.4
2007-09-11 08:50:25 51°15.402 2°45.481 252.8 4.4 240 17.6
2007-09-11 08:50:30 51°15.399 2°45.473 252.5 4.4 234 17.5
2007-09-11 08:50:35 51°15.396 2°45.464 252.4 4.4 251 17.8
2007-09-11 08:50:40 51°15.392 2°45.456 252.9 4.7 236 18.1
2007-09-11 08:50:45 51°15.39 2°45.447 252.9 4.6 243 18
2007-09-11 08:50:50 51°15.387 2°45.438 253.3 4.6 249 17.8
2007-09-11 08:50:55 51°15.384 2°45.429 253.7 4.6 243 18.2
2007-09-11 08:51:00 51°15.382 2°45.419 254.2 4.7 246 17.9
2007-09-11 08:51:05 51°15.378 2°45.411 252.8 4.5 244 18
2007-09-11 08:51:11 51°15.375 2°45.4 252.2 4.7 238 17.8
2007-09-11 08:51:15 51°15.373 2°45.393 252.2 4.6 251 17.7
2007-09-11 08:51:20 51°15.369 2°45.385 250.9 4.7 231 17.7
2007-09-11 08:51:25 51°15.367 2°45.375 251.8 4.4 247 17.2
2007-09-11 08:51:30 51°15.363 2°45.367 248.7 4.6 240 17.2
2007-09-11 08:51:36 51°15.359 2°45.357 248.5 4.4 237 17.1
2007-09-11 08:51:40 51°15.357 2°45.35 247.4 4.6 243 17.2
2007-09-11 08:51:45 51°15.353 2°45.341 247.5 4.4 240 17.4
2007-09-11 08:51:50 51°15.349 2°45.333 246.9 4.5 234 17.6
2007-09-11 08:51:56 51°15.346 2°45.323 246.5 4.4 240 17.8
2007-09-11 08:52:00 51°15.343 2°45.317 247.1 4.4 237 18.1
2007-09-11 08:52:05 51°15.341 2°45.308 247.7 4.3 245 18.3
2007-09-11 08:52:10 51°15.337 2°45.301 248.2 4.4 237 18.5
2007-09-11 08:52:16 51°15.334 2°45.291 249.5 4.2 240 18.3
2007-09-11 08:52:20 51°15.331 2°45.285 249.1 4.3 233 18.3
2007-09-11 08:52:25 51°15.329 2°45.277 249.4 3.9 242 18.1
2007-09-11 08:52:30 51°15.325 2°45.269 249.6 4.2 237 18.1
2007-09-11 08:52:35 51°15.323 2°45.261 249.5 4 244 18.1
2007-09-11 08:52:40 51°15.319 2°45.254 249.9 4.2 231 18
2007-09-11 08:52:45 51°15.316 2°45.246 250.4 4.1 244 18
2007-09-11 08:52:50 51°15.312 2°45.239 249.6 4.1 231 17.8
2007-09-11 08:52:55 51°15.31 2°45.231 250 4.2 238 17.5
2007-09-11 08:53:01 51°15.306 2°45.222 249.2 4.2 232 17.1
2007-09-11 08:53:05 51°15.304 2°45.215 249.4 4.3 248 17.3
2007-09-11 08:53:10 51°15.3 2°45.207 250.9 4.4 237 17.6
2007-09-11 08:53:15 51°15.298 2°45.199 251.3 4.3 240 17.6
2007-09-11 08:53:20 51°15.295 2°45.19 251.4 4.4 240 17.5
2007-09-11 08:53:25 51°15.292 2°45.182 251.4 4.4 244 17.9
2007-09-11 08:53:30 51°15.289 2°45.173 251.8 4.5 234 17.9
2007-09-11 08:53:35 51°15.287 2°45.164 252.9 4.3 249 17.4
2007-09-11 08:53:40 51°15.282 2°45.157 252.2 4.8 230 17.9
2007-09-11 08:53:45 51°15.28 2°45.147 252.5 4.4 247 17.5
2007-09-11 08:53:51 51°15.276 2°45.137 252.8 4.5 245 17.5
2007-09-11 08:53:56 51°15.273 2°45.128 253.4 4.4 242 17.5
2007-09-11 08:54:00 51°15.271 2°45.121 253 4.6 241 17.9
2007-09-11 08:54:05 51°15.268 2°45.112 253.3 4.4 245 17.8
2007-09-11 08:54:11 51°15.264 2°45.102 253 4.5 241 18
2007-09-11 08:54:16 51°15.261 2°45.093 251.8 4.5 242 18
2007-09-11 08:54:20 51°15.259 2°45.086 251.9 4.6 239 17.8
2007-09-11 08:54:25 51°15.256 2°45.077 251.8 4.7 245 18
2007-09-11 08:54:30 51°15.253 2°45.068 251.1 4.7 234 17.9
2007-09-11 08:54:36 51°15.249 2°45.057 251 4.6 250 17.8
2007-09-11 08:54:40 51°15.246 2°45.05 251.1 4.7 235 17.9
2007-09-11 08:54:45 51°15.244 2°45.041 250.5 4.6 245 17.7
2007-09-11 08:54:50 51°15.24 2°45.032 250.1 4.7 240 17.9
2007-09-11 08:54:55 51°15.237 2°45.023 250 4.7 241 17.9
2007-09-11 08:55:00 51°15.234 2°45.014 249.9 4.7 239 17.9
2007-09-11 08:55:05 51°15.231 2°45.005 249.6 4.7 240 18
2007-09-11 08:55:10 51°15.227 2°44.996 250.3 4.6 239 17.7
2007-09-11 08:55:15 51°15.224 2°44.987 249.8 4.6 243 17.8
2007-09-11 08:55:20 51°15.221 2°44.978 250 4.7 239 17.9
2007-09-11 08:55:25 51°15.218 2°44.969 249.9 4.6 242 17.8
2007-09-11 08:55:30 51°15.215 2°44.961 249.7 4.6 238 17.9
2007-09-11 08:55:35 51°15.211 2°44.952 250.3 4.5 242 17.9
2007-09-11 08:55:40 51°15.208 2°44.944 249.5 4.5 235 18
2007-09-11 08:55:45 51°15.205 2°44.935 249.4 4.4 240 17.7
2007-09-11 08:55:50 51°15.201 2°44.927 248.7 4.3 238 17.8
2007-09-11 08:55:55 51°15.198 2°44.92 249.2 4.4 233 17.8
2007-09-11 08:56:00 51°15.195 2°44.911 248.8 4.1 239 17.5
2007-09-11 08:56:05 51°15.192 2°44.904 249 4.2 239 17.4
2007-09-11 08:56:10 51°15.189 2°44.896 248.9 4.2 238 17.6
2007-09-11 08:56:15 51°15.186 2°44.888 249.4 4.2 238 17.4
2007-09-11 08:56:20 51°15.183 2°44.88 249.3 4.2 241 17.6
2007-09-11 08:56:25 51°15.179 2°44.873 250 4.3 232 18
2007-09-11 08:56:30 51°15.177 2°44.865 250.8 4.1 239 18.1
2007-09-11 08:56:35 51°15.174 2°44.857 249.5 4.3 233 17.7
2007-09-11 08:56:40 51°15.171 2°44.849 249.6 4.2 242 17.8
2007-09-11 08:56:45 51°15.167 2°44.841 249.7 4.4 234 17.8
2007-09-11 08:56:50 51°15.164 2°44.832 248.9 4.5 244 17.8
2007-09-11 08:56:56 51°15.159 2°44.822 247.3 4.8 234 17.9
2007-09-11 08:57:00 51°15.157 2°44.815 247.9 4.7 243 17.7
2007-09-11 08:57:05 51°15.153 2°44.806 246.1 5 237 17.8
2007-09-11 08:57:10 51°15.15 2°44.796 246.9 4.9 238 17.7
2007-09-11 08:57:15 51°15.146 2°44.787 245.8 5.1 240 17.9
2007-09-11 08:57:20 51°15.142 2°44.778 245.5 5.1 237 18
2007-09-11 08:57:25 51°15.139 2°44.768 246.5 5 243 17.9
2007-09-11 08:57:30 51°15.134 2°44.759 246.2 5.4 240 18
2007-09-11 08:57:35 51°15.131 2°44.748 248.7 5 235 17.5
2007-09-11 08:57:40 51°15.126 2°44.739 246.7 5.5 235 17.2
2007-09-11 08:57:45 51°15.123 2°44.728 245.8 5.3 243 17.2
2007-09-11 08:57:50 51°15.118 2°44.72 244.2 5.5 235 17.2
2007-09-11 08:57:55 51°15.115 2°44.709 245.3 5.2 237 17.1
2007-09-11 08:58:00 51°15.111 2°44.7 245 5 237 17.2
2007-09-11 08:58:05 51°15.107 2°44.691 244.4 4.9 236 17.8
2007-09-11 08:58:11 51°15.104 2°44.68 245.9 4.7 238 17.9
2007-09-11 08:58:15 51°15.1 2°44.673 246.1 4.6 244 18.3
2007-09-11 08:58:20 51°15.098 2°44.665 248.9 4.3 236 18
2007-09-11 08:58:25 51°15.094 2°44.657 248.2 4.3 237 18.3
2007-09-11 08:58:30 51°15.091 2°44.649 248.3 4.3 227 18.1
2007-09-11 08:58:36 51°15.087 2°44.64 248.7 4 242 17.8
2007-09-11 08:58:40 51°15.085 2°44.633 248.1 4.1 240 17.6
2007-09-11 08:58:45 51°15.081 2°44.625 247.5 4.4 238 17.7
2007-09-11 08:58:50 51°15.078 2°44.617 248.2 4.3 239 17.7
2007-09-11 08:58:56 51°15.075 2°44.607 247.6 4.3 243 17.8
2007-09-11 08:59:01 51°15.072 2°44.599 248.9 4.4 237 17.6
2007-09-11 08:59:05 51°15.069 2°44.593 248.8 4.4 238 17.7
2007-09-11 08:59:10 51°15.066 2°44.584 249.8 4.5 240 17.8
2007-09-11 08:59:15 51°15.063 2°44.576 250.4 4.4 239 17.7
2007-09-11 08:59:20 51°15.059 2°44.567 250.5 4.4 235 17.7
2007-09-11 08:59:25 51°15.056 2°44.558 250 4.5 243 17.5
2007-09-11 08:59:30 51°15.053 2°44.55 249.7 4.5 235 17.5
2007-09-11 08:59:35 51°15.05 2°44.541 249.9 4.5 241 17.7
2007-09-11 08:59:40 51°15.046 2°44.533 250.5 4.6 239 17.8
2007-09-11 08:59:45 51°15.044 2°44.524 250.4 4.5 241 17.8
2007-09-11 08:59:50 51°15.04 2°44.516 250.8 4.5 241 17.7
2007-09-11 08:59:55 51°15.037 2°44.506 250.4 4.7 242 17.6
2007-09-11 09:00:00 51°15.033 2°44.498 248.9 4.9 238 17.9
2007-09-11 09:00:05 51°15.031 2°44.488 249.8 4.9 236 17.6
2007-09-11 09:00:10 51°15.027 2°44.479 249.6 5 245 17.6
2007-09-11 09:00:15 51°15.024 2°44.469 249.2 5 239 17.7
2007-09-11 09:00:20 51°15.02 2°44.46 249 5 238 17.6
2007-09-11 09:00:25 51°15.017 2°44.45 248.5 5 240 17.6
2007-09-11 09:00:31 51°15.012 2°44.439 247.2 5 241 17.7
2007-09-11 09:00:35 51°15.009 2°44.431 246.6 5.2 236 17.8
2007-09-11 09:00:40 51°15.006 2°44.421 245.3 5.1 240 17.8
2007-09-11 09:00:45 51°15.002 2°44.413 245.4 4.9 236 17.9
2007-09-11 09:00:50 51°14.998 2°44.403 246 4.9 238 17.8
2007-09-11 09:00:55 51°14.995 2°44.395 245.3 4.7 234 17.8
2007-09-11 09:01:00 51°14.991 2°44.385 245.6 4.9 239 17.8
2007-09-11 09:01:05 51°14.987 2°44.377 245.3 4.7 234 18
2007-09-11 09:01:10 51°14.984 2°44.368 246.1 4.7 240 17.8
2007-09-11 09:01:15 51°14.981 2°44.36 246.5 4.6 239 17.8
2007-09-11 09:01:20 51°14.978 2°44.351 246.7 4.6 234 17.5
2007-09-11 09:01:25 51°14.974 2°44.342 246.6 4.5 241 17.4
2007-09-11 09:01:30 51°14.971 2°44.334 246.3 4.6 233 17.6
2007-09-11 09:01:35 51°14.968 2°44.325 246.5 4.5 244 17.7
2007-09-11 09:01:40 51°14.964 2°44.318 246.8 4.6 237 17.7
2007-09-11 09:01:45 51°14.961 2°44.309 248.1 4.4 239 17.6
2007-09-11 09:01:50 51°14.958 2°44.301 247.7 4.4 239 17.3
2007-09-11 09:01:55 51°14.955 2°44.293 247.6 4.4 241 17.8
2007-09-11 09:02:00 51°14.951 2°44.284 248.7 4.4 234 17.5
2007-09-11 09:02:05 51°14.948 2°44.276 248.2 4.2 241 17.5
2007-09-11 09:02:11 51°14.944 2°44.267 248.9 4.4 237 17.7
2007-09-11 09:02:15 51°14.942 2°44.26 250.9 4.3 239 17.6
2007-09-11 09:02:20 51°14.94 2°44.252 251.6 4 243 17.5
2007-09-11 09:02:25 51°14.937 2°44.245 254.2 3.9 242 17.6
2007-09-11 09:02:30 51°14.934 2°44.237 256.1 3.8 241 17.6
2007-09-11 09:02:36 51°14.931 2°44.229 257.2 3.8 239 17.5
2007-09-11 09:02:40 51°14.93 2°44.223 258.2 3.5 247 17.6
2007-09-11 09:02:45 51°14.927 2°44.216 260.5 3.6 240 17.6
2007-09-11 09:02:51 51°14.925 2°44.208 260.8 3.4 250 17.7
2007-09-11 09:02:55 51°14.922 2°44.203 261.4 3.6 233 17.7
2007-09-11 09:03:00 51°14.921 2°44.197 262.7 3.3 242 17.4
2007-09-11 09:03:05 51°14.919 2°44.191 263.7 3.2 242 17.2
2007-09-11 09:03:10 51°14.917 2°44.184 264.9 3 244 17.5
2007-09-11 09:03:16 51°14.914 2°44.177 266.9 3 246 17.7
2007-09-11 09:03:20 51°14.912 2°44.172 267.6 3.3 243 18
2007-09-11 09:03:25 51°14.91 2°44.166 268.5 3.3 244 17.9
2007-09-11 09:03:30 51°14.909 2°44.16 270 3.1 250 17.6
2007-09-11 09:03:35 51°14.906 2°44.153 272.4 3.4 241 17.7
2007-09-11 09:03:40 51°14.905 2°44.147 273.1 3.1 251 17.9
2007-09-11 09:03:45 51°14.903 2°44.141 274.4 3.2 245 18.1
2007-09-11 09:03:50 51°14.901 2°44.134 276 3.4 242 18.2
2007-09-11 09:03:55 51°14.9 2°44.128 275 3 249 17.7
2007-09-11 09:04:00 51°14.898 2°44.122 276.5 2.9 252 17.7
2007-09-11 09:04:05 51°14.896 2°44.115 276.5 3.3 243 17.9
2007-09-11 09:04:10 51°14.895 2°44.109 277.3 3.1 251 17.6
2007-09-11 09:04:15 51°14.893 2°44.102 278.7 3.1 252 17.8
2007-09-11 09:04:20 51°14.892 2°44.096 279.1 3.1 252 18
2007-09-11 09:04:25 51°14.891 2°44.089 280.3 3.3 248 17.8
2007-09-11 09:04:30 51°14.89 2°44.084 280.6 3 253 17.9
2007-09-11 09:04:35 51°14.888 2°44.078 280.8 3.1 247 17.9
2007-09-11 09:04:40 51°14.886 2°44.072 282.6 2.8 254 18
2007-09-11 09:04:45 51°14.885 2°44.065 282.6 3.2 245 18
2007-09-11 09:04:50 51°14.884 2°44.059 283.1 2.8 256 18
2007-09-11 09:04:55 51°14.883 2°44.053 283.4 3.3 245 18
2007-09-11 09:05:00 51°14.882 2°44.047 284.9 2.6 258 17.9
2007-09-11 09:05:05 51°14.88 2°44.041 285.9 3 246 17.8
2007-09-11 09:05:10 51°14.879 2°44.036 286.6 2.8 250 17.6
2007-09-11 09:05:15 51°14.877 2°44.03 288.1 2.4 254 17.3
2007-09-11 09:05:20 51°14.876 2°44.023 289.1 2.7 249 17.4
2007-09-11 09:05:25 51°14.875 2°44.018 288.8 2.6 257 17.2
2007-09-11 09:05:31 51°14.873 2°44.011 289.6 2.6 250 17.4
2007-09-11 09:05:36 51°14.872 2°44.006 289.7 2.7 250 17.7
2007-09-11 09:05:40 51°14.871 2°44.002 291.1 2.4 247 17.8
2007-09-11 09:05:45 51°14.87 2°43.997 291.2 2.3 252 17.9
2007-09-11 09:05:50 51°14.869 2°43.992 292 2.3 246 18.1
2007-09-11 09:05:56 51°14.867 2°43.987 292.4 2.2 246 18.1
2007-09-11 09:06:00 51°14.866 2°43.983 292.5 2.4 243 18.3
2007-09-11 09:06:05 51°14.865 2°43.979 292.8 2.3 243 18.3
2007-09-11 09:06:10 51°14.863 2°43.974 292.4 2.3 237 17.9
2007-09-11 09:06:15 51°14.861 2°43.97 291.5 1.9 237 17.7
2007-09-11 09:06:21 51°14.859 2°43.966 291.5 2 234 17.7
2007-09-11 09:06:25 51°14.858 2°43.962 291 2 240 17.7
2007-09-11 09:06:30 51°14.856 2°43.959 291.2 2.4 236 17.9
2007-09-11 09:06:35 51°14.855 2°43.955 291 2.1 239 18
2007-09-11 09:06:40 51°14.853 2°43.951 291.6 2.2 234 17.8
2007-09-11 09:06:45 51°14.851 2°43.947 291 2.4 232 17.6
2007-09-11 09:06:50 51°14.85 2°43.944 290.4 2.2 233 17.6
2007-09-11 09:06:55 51°14.848 2°43.941 290.6 2 231 17.4
2007-09-11 09:07:00 51°14.846 2°43.937 291.5 1.7 233 17.5
2007-09-11 09:07:05 51°14.844 2°43.933 291 2.4 227 17.8
2007-09-11 09:07:10 51°14.842 2°43.931 290.7 2 231 17.8
2007-09-11 09:07:15 51°14.84 2°43.927 292 1.8 226 17.8
2007-09-11 09:07:20 51°14.839 2°43.924 291.3 1.9 234 17.7
2007-09-11 09:07:25 51°14.837 2°43.921 291.7 2 229 17.8
2007-09-11 09:07:30 51°14.835 2°43.918 291.7 1.9 230 17.7
2007-09-11 09:07:35 51°14.833 2°43.914 291.8 1.9 224 17.8
2007-09-11 09:07:40 51°14.832 2°43.911 292.2 1.8 226 17.7
2007-09-11 09:07:45 51°14.83 2°43.908 292.2 2 225 17.7
2007-09-11 09:07:50 51°14.828 2°43.906 291.7 2.2 225 17.7
2007-09-11 09:07:55 51°14.826 2°43.902 292.7 1.6 231 17.6
2007-09-11 09:08:00 51°14.824 2°43.899 291.9 2.1 224 17.6
2007-09-11 09:08:05 51°14.823 2°43.896 291.6 1.6 225 17.7
2007-09-11 09:08:10 51°14.82 2°43.893 291 2.1 220 17.9
2007-09-11 09:08:15 51°14.819 2°43.89 291.1 1.7 223 17.8
2007-09-11 09:08:20 51°14.817 2°43.887 290.9 2.1 219 17.9
2007-09-11 09:08:25 51°14.815 2°43.885 290.3 1.5 225 17.8
2007-09-11 09:08:30 51°14.812 2°43.881 289.8 2 220 17.9
2007-09-11 09:08:35 51°14.811 2°43.879 289.4 2.1 219 17.8
2007-09-11 09:08:40 51°14.809 2°43.877 289.3 1.9 215 17.6
2007-09-11 09:08:45 51°14.807 2°43.874 289.5 1.6 216 17.6
2007-09-11 09:08:50 51°14.805 2°43.871 289.3 2.3 214 17.6
2007-09-11 09:08:55 51°14.803 2°43.869 288.6 1.4 221 17.6
2007-09-11 09:09:00 51°14.8 2°43.866 288.5 2.3 216 17.6
2007-09-11 09:09:05 51°14.799 2°43.863 287.5 1.5 230 17.6
2007-09-11 09:09:10 51°14.796 2°43.861 287.4 2.3 217 17.8
2007-09-11 09:09:15 51°14.795 2°43.859 287.8 1.8 220 17.7
2007-09-11 09:09:20 51°14.792 2°43.856 288.2 1.8 213 17.5
2007-09-11 09:09:25 51°14.791 2°43.854 286.5 1.6 214 17.2
2007-09-11 09:09:31 51°14.788 2°43.851 286.8 1.5 219 17.3
2007-09-11 09:09:36 51°14.786 2°43.848 285.7 2 218 17.4
2007-09-11 09:09:40 51°14.785 2°43.846 285.1 1.6 225 17.4
2007-09-11 09:09:45 51°14.782 2°43.844 285.6 2.3 215 17.9
2007-09-11 09:09:50 51°14.78 2°43.842 284.2 1.9 213 17.6
2007-09-11 09:09:56 51°14.777 2°43.839 284.3 1.8 210 17.6
2007-09-11 09:10:00 51°14.775 2°43.837 282 1.9 209 17.6
2007-09-11 09:10:05 51°14.773 2°43.835 280.4 1.8 213 17.5
2007-09-11 09:10:10 51°14.771 2°43.833 280 1.8 212 17.6
2007-09-11 09:10:15 51°14.769 2°43.831 278.2 1.8 214 17.9
2007-09-11 09:10:20 51°14.767 2°43.83 277.6 1.8 212 17.7
2007-09-11 09:10:25 51°14.765 2°43.828 276.9 1.7 210 17.7
2007-09-11 09:10:30 51°14.763 2°43.825 276.3 1.7 212 17.6
2007-09-11 09:10:35 51°14.76 2°43.824 275.3 1.8 207 17.4
2007-09-11 09:10:40 51°14.759 2°43.822 274.4 1.7 207 17.4
2007-09-11 09:10:45 51°14.756 2°43.82 274.2 1.9 204 17.4
2007-09-11 09:10:50 51°14.754 2°43.818 272.5 1.5 214 17.5
2007-09-11 09:10:55 51°14.751 2°43.816 272.4 2.3 201 17.5
2007-09-11 09:11:00 51°14.75 2°43.814 271.2 1.6 211 17.2
2007-09-11 09:11:05 51°14.747 2°43.812 271.5 1.8 209 17.3
2007-09-11 09:11:10 51°14.745 2°43.811 270.4 2.2 203 17.3
2007-09-11 09:11:15 51°14.744 2°43.809 270.5 1.4 215 17.2
2007-09-11 09:11:20 51°14.741 2°43.807 270.7 1.8 209 17.4
2007-09-11 09:11:25 51°14.739 2°43.805 271.4 1.9 210 17.4
2007-09-11 09:11:30 51°14.737 2°43.803 270.7 1.8 212 17.4
2007-09-11 09:11:35 51°14.735 2°43.801 271.3 1.7 208 17.4
2007-09-11 09:11:40 51°14.733 2°43.799 271.1 1.5 209 17.1
2007-09-11 09:11:45 51°14.73 2°43.797 270.1 2.1 206 17.2
2007-09-11 09:11:50 51°14.729 2°43.796 269.4 1.9 201 16.8
2007-09-11 09:11:55 51°14.727 2°43.794 270 1.3 206 16.8
2007-09-11 09:12:00 51°14.724 2°43.792 269.1 1.7 204 17
2007-09-11 09:12:05 51°14.723 2°43.791 268.1 1.7 206 17
2007-09-11 09:12:10 51°14.721 2°43.789 269.1 1.2 212 16.8
2007-09-11 09:12:15 51°14.718 2°43.787 268.5 1.9 202 17.2
2007-09-11 09:12:20 51°14.717 2°43.786 267.8 1.2 216 17.3
2007-09-11 09:12:25 51°14.713 2°43.784 268.4 2 203 17.5
2007-09-11 09:12:30 51°14.712 2°43.782 268.3 1.5 223 17.8
2007-09-11 09:12:36 51°14.709 2°43.779 268.8 2 216 18
2007-09-11 09:12:40 51°14.707 2°43.777 268.7 2.1 217 17.8
2007-09-11 09:12:45 51°14.705 2°43.774 268.5 2.1 223 17.5
2007-09-11 09:12:50 51°14.703 2°43.77 268 2.1 233 17.5
2007-09-11 09:12:56 51°14.701 2°43.765 268.3 2.4 234 17.5
2007-09-11 09:13:00 51°14.699 2°43.761 270 2.7 233 17.7
2007-09-11 09:13:05 51°14.697 2°43.757 270.4 2.5 241 17.7
2007-09-11 09:13:10 51°14.695 2°43.751 272.9 3.1 248 17.5
2007-09-11 09:13:15 51°14.693 2°43.743 274.6 3.8 251 17.8
2007-09-11 09:13:20 51°14.692 2°43.734 277 4.4 251 17.6
2007-09-11 09:13:25 51°14.692 2°43.725 280.8 4.3 266 16.9
2007-09-11 09:13:30 51°14.691 2°43.713 285.9 4.6 269 16.9
2007-09-11 09:13:35 51°14.692 2°43.702 288 5.3 274 17.1
2007-09-11 09:13:40 51°14.693 2°43.689 293.6 5.9 279 17.3
2007-09-11 09:13:45 51°14.695 2°43.675 299.7 6.2 284 17.5
2007-09-11 09:13:50 51°14.698 2°43.662 303.4 6.8 288 17.7
2007-09-11 09:13:55 51°14.702 2°43.648 307.6 7 291 17.9
2007-09-11 09:14:00 51°14.706 2°43.634 309.3 7.2 294 17.6
2007-09-11 09:14:05 51°14.711 2°43.619 310.6 7.5 295 18
2007-09-11 09:14:11 51°14.717 2°43.6 312 8.1 298 18
2007-09-11 09:14:15 51°14.721 2°43.587 313.3 8.1 301 18
2007-09-11 09:14:20 51°14.727 2°43.571 312.9 8.3 299 18.1
2007-09-11 09:14:25 51°14.733 2°43.556 314.4 8.3 303 17.8
2007-09-11 09:14:31 51°14.741 2°43.538 315.7 8.2 307 17.2
2007-09-11 09:14:36 51°14.748 2°43.521 316.6 8.6 303 -999
2007-09-11 09:14:41 51°14.754 2°43.505 317.8 8.7 306 18.3
2007-09-11 09:14:46 51°14.762 2°43.489 317.9 9 306 18
2007-09-11 09:14:51 51°14.769 2°43.473 317.2 9.2 305 18.5
2007-09-11 09:14:56 51°14.776 2°43.455 316.7 9.3 306 18.6
2007-09-11 09:15:01 51°14.784 2°43.438 317.2 9.5 306 18.5
2007-09-11 09:15:05 51°14.79 2°43.425 317.5 9.9 305 18.9
2007-09-11 09:15:11 51°14.8 2°43.403 317.5 9.9 306 18.9
2007-09-11 09:15:16 51°14.808 2°43.386 316.7 9.6 306 18.9
2007-09-11 09:15:21 51°14.815 2°43.368 315.7 9.8 302 18.5
2007-09-11 09:15:25 51°14.822 2°43.354 314.5 9.9 304 18.3
2007-09-11 09:15:30 51°14.83 2°43.335 313.7 10.2 302 18.2
2007-09-11 09:15:35 51°14.838 2°43.317 314.2 10.4 304 18.5
2007-09-11 09:15:40 51°14.846 2°43.297 314 10.5 303 18.6
2007-09-11 09:15:45 51°14.854 2°43.278 314.9 10.4 304 18.2
2007-09-11 09:15:50 51°14.862 2°43.259 314.1 10.5 304 18.1
2007-09-11 09:15:55 51°14.87 2°43.24 314.7 10.4 304 17.8
2007-09-11 09:16:00 51°14.878 2°43.221 315.4 10.4 304 17.2
2007-09-11 09:16:05 51°14.887 2°43.202 314.5 10.3 305 17
2007-09-11 09:16:10 51°14.895 2°43.183 314 10.5 305 16.7
2007-09-11 09:16:15 51°14.903 2°43.163 314 10.7 302 16.5
2007-09-11 09:16:20 51°14.911 2°43.144 314.7 10.6 301 15.8
2007-09-11 09:16:25 51°14.918 2°43.124 312.8 10.4 303 15.1
2007-09-11 09:16:30 51°14.926 2°43.104 313.3 10.2 304 14.8
2007-09-11 09:16:35 51°14.933 2°43.083 312.4 10.5 302 14.8
2007-09-11 09:16:40 51°14.942 2°43.065 314.2 10.5 305 14.7
2007-09-11 09:16:45 51°14.949 2°43.045 314.1 10.4 300 14.8
2007-09-11 09:16:51 51°14.958 2°43.023 314.9 10.4 302 14.4
2007-09-11 09:16:55 51°14.964 2°43.008 314.6 10.4 300 13.8
2007-09-11 09:17:00 51°14.972 2°42.989 315 10.3 302 13.5
2007-09-11 09:17:05 51°14.979 2°42.969 313.8 10 302 13.3
2007-09-11 09:17:10 51°14.987 2°42.951 314.3 9.8 303 13.3
2007-09-11 09:17:16 51°14.996 2°42.928 314 9.9 303 13.5
2007-09-11 09:17:20 51°15.003 2°42.914 315.5 9.8 307 13.2
2007-09-11 09:17:25 51°15.009 2°42.895 314.7 9.9 301 13.6
2007-09-11 09:17:30 51°15.018 2°42.877 314.9 10 305 13.5
2007-09-11 09:17:35 51°15.025 2°42.859 315.1 9.9 304 13.8
2007-09-11 09:17:40 51°15.033 2°42.84 315.1 10.1 303 14.5
2007-09-11 09:17:45 51°15.041 2°42.822 315.8 9.9 304 14.5
2007-09-11 09:17:50 51°15.048 2°42.804 315.3 10.2 302 14.5
2007-09-11 09:17:55 51°15.056 2°42.785 314.5 10.1 305 14.3
2007-09-11 09:18:00 51°15.063 2°42.765 314.6 10.2 302 14.4
2007-09-11 09:18:05 51°15.071 2°42.747 314.6 10.2 303 14.2
2007-09-11 09:18:10 51°15.079 2°42.728 314.3 10.2 304 14.5
2007-09-11 09:18:15 51°15.086 2°42.709 314.4 10.6 300 14.6
2007-09-11 09:18:20 51°15.093 2°42.69 314.7 10.2 303 14.6
2007-09-11 09:18:25 51°15.101 2°42.672 315.4 10.3 302 14.6
2007-09-11 09:18:31 51°15.11 2°42.649 314.3 10.1 305 14.4
2007-09-11 09:18:36 51°15.118 2°42.631 315.8 10.1 305 14.3
2007-09-11 09:18:40 51°15.124 2°42.615 314.1 10.1 303 14.3
2007-09-11 09:18:45 51°15.133 2°42.597 314.3 10.2 304 14.3
2007-09-11 09:18:51 51°15.141 2°42.574 314.1 10 303 14.5
2007-09-11 09:18:56 51°15.15 2°42.556 314.7 10.1 304 14.1
2007-09-11 09:19:00 51°15.156 2°42.54 313.8 10.3 303 14.3
2007-09-11 09:19:05 51°15.164 2°42.522 315.2 10.2 306 14.5
2007-09-11 09:19:11 51°15.173 2°42.498 314.9 10.4 300 14.4
2007-09-11 09:19:16 51°15.181 2°42.481 314.7 10 306 13.7
2007-09-11 09:19:21 51°15.189 2°42.462 315.3 10.1 305 13.9
2007-09-11 09:19:25 51°15.195 2°42.447 314.6 10.4 304 13.8
2007-09-11 09:19:30 51°15.203 2°42.428 315 9.7 303 13.3
2007-09-11 09:19:36 51°15.211 2°42.406 312.9 10.1 303 13.1
2007-09-11 09:19:40 51°15.217 2°42.391 313.9 10.1 306 13.1
2007-09-11 09:19:45 51°15.225 2°42.373 313.5 10.1 303 12.7
2007-09-11 09:19:50 51°15.233 2°42.355 315.4 10 306 12.7
2007-09-11 09:19:55 51°15.241 2°42.336 314.2 10.4 302 12.9
2007-09-11 09:20:01 51°15.251 2°42.314 314.2 10.3 307 13.2
2007-09-11 09:20:05 51°15.257 2°42.298 314.9 10.3 302 13.1
2007-09-11 09:20:10 51°15.266 2°42.281 314.8 10.1 303 12.5
2007-09-11 09:20:15 51°15.273 2°42.26 313.3 10.2 302 11.9
2007-09-11 09:20:20 51°15.281 2°42.243 315.9 9.4 306 10.1
2007-09-11 09:20:26 51°15.288 2°42.219 311.7 9.7 296 10.1
2007-09-11 09:20:31 51°15.296 2°42.202 313.1 9.3 303 9.3
2007-09-11 09:20:36 51°15.301 2°42.181 311.3 9.7 295 10.2
2007-09-11 09:20:41 51°15.309 2°42.165 311.8 9.6 304 10.9
2007-09-11 09:20:46 51°15.316 2°42.146 314.1 9.8 300 11.2
2007-09-11 09:20:51 51°15.325 2°42.13 314.7 9.8 306 11.6
2007-09-11 09:20:56 51°15.332 2°42.112 315.1 9.7 303 11.7
2007-09-11 09:21:00 51°15.338 2°42.098 315.2 9.6 307 11
2007-09-11 09:21:05 51°15.345 2°42.08 315.9 9.6 305 10.9
2007-09-11 09:21:11 51°15.355 2°42.059 316.4 9.6 307 11.2
2007-09-11 09:21:15 51°15.361 2°42.045 317.3 9.8 306 10.8
2007-09-11 09:21:20 51°15.369 2°42.027 317.3 10 307 11
2007-09-11 09:21:25 51°15.377 2°42.009 317.1 10 306 11.4
2007-09-11 09:21:31 51°15.387 2°41.987 316.9 10.2 303 11.7
2007-09-11 09:21:36 51°15.396 2°41.971 317.1 10.1 311 11.5
2007-09-11 09:21:41 51°15.403 2°41.953 319.3 9.7 304 -999
2007-09-11 09:21:46 51°15.411 2°41.936 317.1 9.4 303 -999
2007-09-11 09:21:52 51°15.42 2°41.918 317.9 9.1 308 10.1
2007-09-11 09:21:57 51°15.428 2°41.902 320.8 9.2 307 9.7
2007-09-11 09:22:01 51°15.434 2°41.889 318 9.7 306 10.1
2007-09-11 09:22:06 51°15.443 2°41.872 318.8 9.3 312 10.4
2007-09-11 09:22:12 51°15.453 2°41.853 319.9 9.4 310 10.6
2007-09-11 09:22:16 51°15.459 2°41.839 318.6 9.5 306 10.6
2007-09-11 09:22:22 51°15.469 2°41.82 320.3 9.5 309 10.8
2007-09-11 09:22:27 51°15.477 2°41.805 320.7 9.4 311 10.7
2007-09-11 09:22:32 51°15.486 2°41.789 320.8 9.6 309 10.9
2007-09-11 09:22:36 51°15.493 2°41.777 321.1 9.2 315 11.3
2007-09-11 09:22:41 51°15.502 2°41.762 322.9 9.5 311 11.2
2007-09-11 09:22:46 51°15.511 2°41.746 321 9.7 313 12
2007-09-11 09:22:51 51°15.52 2°41.729 321.1 9.5 312 11.7
2007-09-11 09:22:56 51°15.529 2°41.714 321.8 9.6 311 11.5
2007-09-11 09:23:01 51°15.538 2°41.697 320.4 9.8 311 11.8
2007-09-11 09:23:06 51°15.547 2°41.682 322.6 9.6 312 -999
2007-09-11 09:23:11 51°15.555 2°41.666 321.5 10 307 10.6
2007-09-11 09:23:16 51°15.564 2°41.65 320.8 9.5 311 -999
2007-09-11 09:23:21 51°15.572 2°41.634 320.8 9.5 310 10.9